Terminal Aerodrome Forecast
Issued by NWS

Home | Current Version | Previous Version | Text Only | Print | Product List | Glossary On
Versions: 1 2 3 4 5 6 7 8 9 10 11 12 13 14 15 16 17 18 19 20 21 22 23 24 25 26 27 28 29 30 31 32 33 34 35 36 37 38 39 40
000
FTUS43 KGRB 291506 AAB
TAFATW
TAF AMD
KATW 291506Z 2915/3012 26014G20KT P6SM BKN025 BKN040
      TEMPO 2916/2918 SCT025 BKN040
     FM291800 26013G21KT P6SM BKN050
     FM300000 27008KT P6SM BKN080
     FM300800 VRB03KT 6SM BR BKN040
      TEMPO 3008/3012 3SM BR=

USA.gov is the U.S. government's official web portal to all federal, state and local government web resources and services.